Time;durP1;ratioP1;P1;durP2;ratioP2;P2;SDS_P1;SDS_P2;PMS_P1;PMS_P2;Temp;Humidity;BMP_temperature;BMP_pressure;BME280_temperature;BME280_humidity;BME280_pressure;Samples;Min_cycle;Max_cycle;Signal;HPM_P1;HPM_P2
2021/10/17 00:01:08;;;;;;;4.75;2.53;;;8.30;99.90;;;;;;5031935;28;20186;-72
2021/10/17 00:03:34;;;;;;;2.58;1.90;;;8.20;99.90;;;;;;5032362;28;20177;-72
2021/10/17 00:06:00;;;;;;;3.03;2.20;;;8.10;99.90;;;;;;5050194;28;20177;-72
2021/10/17 00:08:26;;;;;;;3.92;2.45;;;8.10;99.90;;;;;;5032071;28;20184;-73
2021/10/17 00:10:52;;;;;;;3.97;2.15;;;8.20;99.90;;;;;;5050045;28;20193;-72
2021/10/17 00:13:17;;;;;;;4.13;2.13;;;8.20;99.90;;;;;;5050163;28;20169;-72
2021/10/17 00:15:43;;;;;;;3.78;2.35;;;8.20;99.90;;;;;;5028321;28;20174;-72
2021/10/17 00:18:10;;;;;;;2.40;2.00;;;8.10;99.90;;;;;;5029812;28;20158;-72
2021/10/17 00:20:36;;;;;;;3.25;2.35;;;8.10;99.90;;;;;;5030074;28;20217;-72
2021/10/17 00:23:02;;;;;;;3.03;1.73;;;7.90;99.90;;;;;;5012324;28;20162;-72
2021/10/17 00:25:28;;;;;;;2.75;2.17;;;7.80;99.90;;;;;;5030054;28;20694;-72
2021/10/17 00:27:55;;;;;;;3.22;2.30;;;7.80;99.90;;;;;;5029899;28;20193;-72
2021/10/17 00:30:21;;;;;;;3.03;2.13;;;7.70;99.90;;;;;;5029882;28;20193;-72
2021/10/17 00:32:48;;;;;;;2.70;2.00;;;7.70;99.90;;;;;;5033236;28;20176;-72
2021/10/17 00:35:14;;;;;;;3.13;2.67;;;7.80;99.90;;;;;;5031663;28;20235;-72
2021/10/17 00:37:41;;;;;;;2.85;2.30;;;7.80;99.90;;;;;;5049699;28;20166;-72
2021/10/17 00:40:13;;;;;;;5.97;2.40;;;7.80;99.90;;;;;;5049309;28;20208;-73
2021/10/17 00:42:40;;;;;;;4.00;2.63;;;7.60;99.90;;;;;;5023984;28;20201;-73
2021/10/17 00:45:17;;;;;;;5.82;2.83;;;7.60;99.90;;;;;;5029640;28;20200;-73
2021/10/17 00:47:43;;;;;;;5.85;3.25;;;7.60;99.90;;;;;;5040472;28;20307;-74
2021/10/17 00:50:10;;;;;;;4.53;2.97;;;7.50;99.90;;;;;;5031489;28;20166;-73
2021/10/17 00:52:38;;;;;;;3.97;2.83;;;7.40;99.90;;;;;;5049380;28;20281;-73
2021/10/17 00:55:05;;;;;;;7.63;2.33;;;7.30;99.90;;;;;;5024484;28;20174;-73
2021/10/17 00:57:32;;;;;;;8.27;3.13;;;7.20;99.90;;;;;;5029496;28;20213;-73
2021/10/17 00:59:59;;;;;;;4.43;3.03;;;7.30;99.90;;;;;;5029368;28;20189;-73
2021/10/17 01:02:25;;;;;;;4.95;3.00;;;7.30;99.90;;;;;;5029210;28;20226;-73
2021/10/17 01:04:52;;;;;;;3.30;3.00;;;7.30;99.90;;;;;;5046469;28;20197;-73
2021/10/17 01:07:18;;;;;;;4.57;2.60;;;7.20;99.90;;;;;;5031188;28;20216;-73
2021/10/17 01:09:44;;;;;;;4.10;2.42;;;7.30;99.90;;;;;;5030896;28;20177;-73
2021/10/17 01:12:12;;;;;;;8.63;3.05;;;7.20;99.90;;;;;;5048650;28;20193;-73
2021/10/17 01:14:37;;;;;;;2.85;2.58;;;7.20;99.90;;;;;;5048917;28;20181;-73
2021/10/17 01:17:04;;;;;;;4.82;3.20;;;7.30;99.90;;;;;;5031055;28;20614;-73
2021/10/17 01:19:30;;;;;;;4.95;2.60;;;7.30;99.90;;;;;;5048600;28;20181;-73
2021/10/17 01:21:57;;;;;;;6.57;3.25;;;7.40;99.90;;;;;;5048835;28;20165;-73
2021/10/17 01:24:22;;;;;;;4.70;3.53;;;7.60;99.90;;;;;;5030836;28;20165;-73
2021/10/17 01:26:48;;;;;;;7.43;3.55;;;7.60;99.90;;;;;;5030281;28;20239;-73
2021/10/17 01:29:15;;;;;;;3.63;2.03;;;7.70;99.90;;;;;;5048612;28;20166;-73
2021/10/17 01:31:46;;;;;;;4.68;2.65;;;7.70;99.90;;;;;;5030676;28;20248;-73
2021/10/17 01:34:14;;;;;;;3.78;2.47;;;7.70;99.90;;;;;;5030878;28;20184;-73
2021/10/17 01:36:41;;;;;;;10.07;2.80;;;7.70;99.90;;;;;;5048348;28;20192;-72
2021/10/17 01:39:09;;;;;;;6.25;3.00;;;7.70;99.90;;;;;;5030529;28;20239;-73
2021/10/17 01:41:36;;;;;;;7.47;2.72;;;7.80;99.90;;;;;;5030415;28;20161;-73
2021/10/17 01:44:08;;;;;;;3.78;3.00;;;7.90;99.90;;;;;;5048482;28;20158;-73
2021/10/17 01:46:35;;;;;;;7.32;3.88;;;8.00;99.90;;;;;;5048249;28;20193;-73
2021/10/17 01:49:05;;;;;;;3.92;2.83;;;8.00;99.90;;;;;;5030343;28;20172;-73
2021/10/17 01:51:32;;;;;;;5.05;2.90;;;8.00;99.90;;;;;;5030328;28;20166;-73
2021/10/17 01:53:58;;;;;;;4.78;2.40;;;8.00;99.90;;;;;;5047986;28;20224;-73
2021/10/17 01:56:24;;;;;;;2.97;2.38;;;7.90;99.90;;;;;;5048165;28;20207;-73
2021/10/17 01:58:50;;;;;;;5.43;2.70;;;7.80;99.90;;;;;;5047959;28;20271;-73
2021/10/17 02:01:16;;;;;;;4.00;2.28;;;7.80;99.90;;;;;;5043612;28;20194;-73
2021/10/17 02:03:42;;;;;;;2.80;2.25;;;7.70;99.90;;;;;;5047866;28;20188;-73
2021/10/17 02:06:09;;;;;;;3.65;2.83;;;7.60;99.90;;;;;;5030342;28;20169;-73
2021/10/17 02:08:34;;;;;;;3.88;2.45;;;7.60;99.90;;;;;;5029687;28;20595;-73
2021/10/17 02:11:00;;;;;;;5.05;2.33;;;7.50;99.90;;;;;;5047749;28;20208;-73
2021/10/17 02:13:27;;;;;;;5.15;2.40;;;7.40;99.90;;;;;;5030218;28;20185;-73
2021/10/17 02:15:52;;;;;;;2.58;2.03;;;7.40;99.90;;;;;;5047832;28;20165;-73
2021/10/17 02:18:18;;;;;;;5.53;2.33;;;7.40;99.90;;;;;;5047889;28;20165;-73
2021/10/17 02:20:44;;;;;;;6.22;2.17;;;7.40;99.90;;;;;;5047800;28;20189;-73
2021/10/17 02:23:10;;;;;;;2.53;1.90;;;7.30;99.90;;;;;;5047807;28;20162;-73
2021/10/17 02:25:37;;;;;;;3.75;2.00;;;7.20;99.90;;;;;;5047782;28;20192;-73
2021/10/17 02:28:03;;;;;;;3.53;2.70;;;7.10;99.90;;;;;;5029840;28;20173;-73
2021/10/17 02:30:29;;;;;;;3.67;2.85;;;7.20;99.90;;;;;;5047746;28;20185;-73
2021/10/17 02:32:55;;;;;;;2.40;2.05;;;7.20;99.90;;;;;;5029943;28;20199;-73
2021/10/17 02:35:21;;;;;;;4.43;2.25;;;7.20;99.90;;;;;;5047689;28;20157;-73
2021/10/17 02:37:46;;;;;;;4.03;2.47;;;7.20;99.90;;;;;;5029782;28;20183;-73
2021/10/17 02:40:12;;;;;;;9.23;2.85;;;7.30;99.90;;;;;;5047531;28;20544;-73
2021/10/17 02:42:38;;;;;;;5.03;2.88;;;7.30;99.90;;;;;;5047702;28;20207;-73
2021/10/17 02:45:06;;;;;;;4.15;2.47;;;7.20;99.90;;;;;;5048019;28;20164;-74
2021/10/17 02:47:32;;;;;;;4.80;2.65;;;7.10;99.90;;;;;;5047517;28;20169;-74
2021/10/17 02:49:58;;;;;;;3.47;2.28;;;7.00;99.90;;;;;;5029904;28;20177;-74
2021/10/17 02:52:24;;;;;;;4.13;2.38;;;7.00;99.90;;;;;;5029890;28;20176;-74
2021/10/17 02:54:50;;;;;;;8.95;2.35;;;6.90;99.90;;;;;;5029673;28;20188;-73
2021/10/17 02:57:16;;;;;;;4.57;2.60;;;6.90;99.90;;;;;;5029707;28;20177;-73
2021/10/17 02:59:42;;;;;;;4.00;2.42;;;6.90;99.90;;;;;;5047851;28;20185;-74
2021/10/17 03:02:08;;;;;;;5.60;2.72;;;6.80;99.90;;;;;;5029528;28;20193;-73
2021/10/17 03:04:34;;;;;;;4.65;2.75;;;6.80;99.90;;;;;;5029645;28;20169;-73
2021/10/17 03:07:00;;;;;;;5.65;2.30;;;6.80;99.90;;;;;;5029638;28;20161;-73
2021/10/17 03:09:26;;;;;;;7.38;2.67;;;6.70;99.90;;;;;;5029671;28;20169;-73
2021/10/17 03:11:52;;;;;;;4.05;2.58;;;6.70;99.90;;;;;;5048904;28;20255;-73
2021/10/17 03:14:18;;;;;;;7.03;2.67;;;6.70;99.90;;;;;;5051334;28;20162;-73
2021/10/17 03:16:45;;;;;;;8.85;2.90;;;6.70;99.90;;;;;;5033833;28;20630;-75
2021/10/17 03:19:13;;;;;;;3.97;2.17;;;6.80;99.90;;;;;;5051192;28;20216;-74
2021/10/17 03:21:39;;;;;;;5.85;2.88;;;6.70;99.90;;;;;;5051129;28;20185;-75
2021/10/17 03:24:05;;;;;;;6.47;3.08;;;6.70;99.90;;;;;;5051093;28;20157;-73
2021/10/17 03:26:31;;;;;;;5.57;3.15;;;6.70;99.90;;;;;;5033274;28;20165;-73
2021/10/17 03:28:57;;;;;;;5.45;2.90;;;6.80;99.90;;;;;;5033041;28;20202;-73
2021/10/17 03:31:23;;;;;;;3.38;2.20;;;6.80;99.90;;;;;;5050846;28;20248;-74
2021/10/17 03:33:49;;;;;;;4.88;2.80;;;6.90;99.90;;;;;;5050989;28;20158;-74
2021/10/17 03:36:15;;;;;;;4.60;2.42;;;6.90;99.90;;;;;;5032940;28;20626;-74
2021/10/17 03:38:41;;;;;;;5.15;2.78;;;6.90;99.90;;;;;;5032688;28;20251;-73
2021/10/17 03:41:08;;;;;;;6.53;3.00;;;6.90;99.90;;;;;;5032477;28;20201;-74
2021/10/17 03:43:34;;;;;;;4.05;2.35;;;6.90;99.90;;;;;;5050543;28;20158;-74
2021/10/17 03:46:00;;;;;;;6.25;2.97;;;6.90;99.90;;;;;;5032821;28;20184;-73
2021/10/17 03:48:25;;;;;;;5.25;2.95;;;6.90;99.90;;;;;;5032725;28;20245;-73
2021/10/17 03:50:51;;;;;;;3.10;2.80;;;7.00;99.90;;;;;;5032544;28;20224;-73
2021/10/17 03:53:17;;;;;;;8.25;3.00;;;7.00;99.90;;;;;;5050269;28;20213;-73
2021/10/17 03:55:43;;;;;;;4.75;2.88;;;7.10;99.90;;;;;;5032662;28;20178;-73
2021/10/17 03:58:10;;;;;;;6.22;2.60;;;7.20;99.90;;;;;;5050451;28;20153;-74
2021/10/17 04:00:36;;;;;;;6.32;2.85;;;7.20;99.90;;;;;;5032591;28;20204;-74
2021/10/17 04:03:02;;;;;;;4.15;3.13;;;7.20;99.90;;;;;;5050347;28;20272;-73
2021/10/17 04:05:28;;;;;;;4.65;2.90;;;7.30;99.90;;;;;;5032400;28;20179;-73
2021/10/17 04:07:54;;;;;;;4.75;2.80;;;7.20;99.90;;;;;;5050775;28;20185;-73
2021/10/17 04:10:20;;;;;;;3.60;2.30;;;7.20;99.90;;;;;;5050217;28;20228;-74
2021/10/17 04:12:46;;;;;;;6.80;2.38;;;7.20;99.90;;;;;;5032373;28;20666;-73
2021/10/17 04:15:11;;;;;;;4.60;2.35;;;7.30;99.90;;;;;;5050314;28;20168;-74
2021/10/17 04:17:37;;;;;;;5.43;2.50;;;7.30;99.90;;;;;;5032251;28;20254;-73
2021/10/17 04:20:04;;;;;;;5.50;2.70;;;7.20;99.90;;;;;;5049942;28;20682;-73
2021/10/17 04:22:31;;;;;;;7.10;2.53;;;7.20;99.90;;;;;;5049609;28;20184;-73
2021/10/17 04:24:57;;;;;;;7.43;2.83;;;7.20;99.90;;;;;;5049786;28;20247;-74
2021/10/17 04:27:22;;;;;;;6.75;2.70;;;7.20;99.90;;;;;;5032032;28;20177;-73
2021/10/17 04:29:48;;;;;;;12.57;2.97;;;7.20;99.90;;;;;;5049949;28;20165;-73
2021/10/17 04:32:14;;;;;;;7.75;2.65;;;7.20;99.90;;;;;;5049724;28;20193;-73
2021/10/17 04:34:40;;;;;;;5.00;3.00;;;7.20;99.90;;;;;;5032116;28;20173;-73
2021/10/17 04:37:07;;;;;;;6.43;3.08;;;7.10;99.90;;;;;;5032003;28;20185;-73
2021/10/17 04:39:35;;;;;;;5.35;2.35;;;7.10;99.90;;;;;;5031392;28;20277;-73
2021/10/17 04:42:01;;;;;;;3.58;2.78;;;6.90;99.90;;;;;;5049742;28;20193;-73
2021/10/17 04:44:28;;;;;;;8.73;3.38;;;6.90;99.90;;;;;;5049752;28;20168;-74
2021/10/17 04:46:54;;;;;;;4.18;2.08;;;6.90;99.90;;;;;;5049790;28;20149;-73
2021/10/17 04:49:25;;;;;;;12.32;3.28;;;6.90;99.90;;;;;;5031672;28;20223;-74
2021/10/17 04:51:55;;;;;;;4.22;2.95;;;6.80;99.90;;;;;;5031690;28;20507;-73
2021/10/17 04:54:22;;;;;;;5.53;3.42;;;6.80;99.90;;;;;;5064011;28;20232;-75
2021/10/17 04:56:48;;;;;;;8.48;4.10;;;6.80;99.90;;;;;;5068099;28;20223;-74
2021/10/17 04:59:17;;;;;;;6.30;3.40;;;6.80;99.90;;;;;;5069496;28;20247;-73
2021/10/17 05:01:43;;;;;;;3.63;2.63;;;6.80;99.90;;;;;;5069344;28;20196;-73
2021/10/17 05:04:09;;;;;;;7.32;4.00;;;6.80;99.90;;;;;;5069433;28;20149;-73
2021/10/17 05:06:35;;;;;;;8.90;3.15;;;6.90;99.90;;;;;;5068032;28;20237;-73
2021/10/17 05:09:01;;;;;;;7.38;3.38;;;6.80;99.90;;;;;;5069324;28;20216;-73
2021/10/17 05:11:26;;;;;;;7.07;3.30;;;6.90;99.90;;;;;;5067610;28;20205;-73
2021/10/17 05:13:53;;;;;;;6.47;3.58;;;6.80;99.90;;;;;;5067647;28;20203;-73
2021/10/17 05:16:18;;;;;;;6.55;3.88;;;6.80;99.90;;;;;;5069160;28;20164;-73
2021/10/17 05:18:44;;;;;;;4.38;3.30;;;6.80;99.90;;;;;;5067872;28;20672;-73
2021/10/17 05:21:10;;;;;;;4.93;3.30;;;6.80;99.90;;;;;;5069004;28;20216;-73
2021/10/17 05:23:36;;;;;;;11.07;3.78;;;6.80;99.90;;;;;;5067647;28;20172;-73
2021/10/17 05:26:04;;;;;;;12.48;3.97;;;6.80;99.90;;;;;;5067669;28;20187;-73
2021/10/17 05:28:31;;;;;;;9.98;3.35;;;6.80;99.90;;;;;;5068859;28;20172;-73
2021/10/17 05:31:00;;;;;;;7.65;3.85;;;6.70;99.90;;;;;;5068735;28;20196;-73
2021/10/17 05:33:36;;;;;;;10.95;3.88;;;6.70;99.90;;;;;;5067372;28;20247;-73
2021/10/17 05:36:04;;;;;;;6.80;3.33;;;6.70;99.90;;;;;;5068429;28;20160;-73
2021/10/17 05:38:30;;;;;;;9.05;3.78;;;6.70;99.90;;;;;;5068551;28;20203;-73
2021/10/17 05:40:56;;;;;;;9.32;3.47;;;6.70;99.90;;;;;;5068803;28;20204;-74
2021/10/17 05:43:22;;;;;;;5.40;3.78;;;6.80;99.90;;;;;;5068585;28;20239;-74
2021/10/17 05:45:48;;;;;;;8.63;4.15;;;6.90;99.90;;;;;;5068450;28;20153;-74
2021/10/17 05:48:14;;;;;;;9.35;4.80;;;6.80;99.90;;;;;;5067191;28;20629;-74
2021/10/17 05:50:40;;;;;;;10.40;4.55;;;6.90;99.90;;;;;;5066966;28;20197;-73
2021/10/17 05:53:06;;;;;;;8.05;4.10;;;6.80;99.90;;;;;;5066849;28;20343;-73
2021/10/17 05:55:32;;;;;;;7.65;3.25;;;6.80;99.90;;;;;;5068426;28;20180;-72
2021/10/17 05:57:58;;;;;;;7.55;3.80;;;6.80;99.90;;;;;;5068389;28;20161;-72
2021/10/17 06:00:24;;;;;;;8.13;3.25;;;6.80;99.90;;;;;;5068204;28;20208;-73
2021/10/17 06:02:50;;;;;;;6.28;3.30;;;6.80;99.90;;;;;;5066962;28;20332;-73
2021/10/17 06:05:16;;;;;;;5.22;2.67;;;6.80;99.90;;;;;;5068278;28;20598;-73
2021/10/17 06:07:42;;;;;;;9.20;3.85;;;6.70;99.90;;;;;;5068360;28;20156;-73
2021/10/17 06:10:10;;;;;;;7.88;3.75;;;6.70;99.90;;;;;;5068259;28;20254;-73
2021/10/17 06:12:38;;;;;;;5.50;3.70;;;6.80;99.90;;;;;;5066760;28;20183;-73
2021/10/17 06:15:08;;;;;;;4.30;3.40;;;6.90;99.90;;;;;;5066878;28;20637;-73
2021/10/17 06:17:35;;;;;;;10.18;3.97;;;7.00;99.90;;;;;;5066910;28;20180;-73
2021/10/17 06:20:02;;;;;;;8.80;4.57;;;7.00;99.90;;;;;;5067907;28;20195;-72
2021/10/17 06:22:28;;;;;;;8.75;4.38;;;7.00;99.90;;;;;;5067991;28;20179;-73
2021/10/17 06:24:53;;;;;;;14.82;4.78;;;7.00;99.90;;;;;;5067996;28;20220;-73
2021/10/17 06:27:19;;;;;;;9.68;3.80;;;7.10;99.90;;;;;;5067870;28;20168;-72
2021/10/17 06:29:46;;;;;;;8.25;4.07;;;7.10;99.90;;;;;;5067734;28;20216;-72
2021/10/17 06:32:12;;;;;;;7.20;4.00;;;7.10;99.90;;;;;;5067793;28;20214;-74
2021/10/17 06:34:38;;;;;;;7.50;4.30;;;7.10;99.90;;;;;;5066475;28;20287;-73
2021/10/17 06:37:03;;;;;;;7.63;4.28;;;7.20;99.90;;;;;;5067886;28;20267;-73
2021/10/17 06:39:29;;;;;;;7.57;3.53;;;7.30;99.90;;;;;;5066407;28;20268;-72
2021/10/17 06:41:56;;;;;;;9.18;3.20;;;7.30;99.90;;;;;;5067608;28;20192;-73
2021/10/17 06:44:22;;;;;;;7.75;4.10;;;7.50;99.90;;;;;;5066167;28;20176;-73
2021/10/17 06:46:49;;;;;;;8.05;3.60;;;7.50;99.90;;;;;;5067630;28;20247;-73
2021/10/17 06:49:16;;;;;;;3.83;2.90;;;7.60;99.90;;;;;;5071939;28;20191;-73
2021/10/17 06:51:43;;;;;;;9.40;3.53;;;7.70;99.90;;;;;;5071441;28;20188;-72
2021/10/17 06:54:09;;;;;;;9.48;4.00;;;7.70;99.90;;;;;;5070094;28;20235;-73
2021/10/17 06:56:35;;;;;;;6.45;3.65;;;8.00;99.90;;;;;;5070308;28;20173;-72
2021/10/17 06:59:01;;;;;;;5.95;3.25;;;8.00;99.90;;;;;;5071247;28;20763;-72
2021/10/17 07:01:27;;;;;;;10.50;3.72;;;8.20;99.90;;;;;;5070043;28;20544;-71
2021/10/17 07:03:52;;;;;;;6.10;3.17;;;8.30;99.90;;;;;;5070144;28;20173;-72
2021/10/17 07:06:18;;;;;;;7.30;3.50;;;8.40;99.90;;;;;;5070076;28;20176;-72
2021/10/17 07:08:45;;;;;;;11.07;4.07;;;8.60;99.90;;;;;;5071441;28;20212;-72
2021/10/17 07:11:11;;;;;;;8.95;3.53;;;8.70;99.90;;;;;;5069816;28;20212;-72
2021/10/17 07:13:36;;;;;;;6.38;2.78;;;8.90;99.90;;;;;;5071356;28;20188;-73
2021/10/17 07:16:02;;;;;;;4.45;3.35;;;9.00;99.90;;;;;;5069938;28;20168;-72
2021/10/17 07:18:28;;;;;;;7.20;3.47;;;9.30;99.90;;;;;;5069812;28;20287;-73
2021/10/17 07:20:54;;;;;;;6.45;2.75;;;9.60;99.90;;;;;;5069803;28;20344;-73
2021/10/17 07:23:20;;;;;;;2.95;2.55;;;9.80;99.90;;;;;;5069943;28;20164;-73
2021/10/17 07:25:46;;;;;;;5.15;3.45;;;10.00;99.90;;;;;;5071349;28;20164;-73
2021/10/17 07:28:12;;;;;;;7.78;2.80;;;10.00;99.90;;;;;;5070914;28;20167;-72
2021/10/17 07:30:38;;;;;;;6.85;3.03;;;9.90;99.90;;;;;;5071332;28;20189;-73
2021/10/17 07:33:04;;;;;;;6.30;3.97;;;10.00;99.90;;;;;;5071409;28;20236;-72
2021/10/17 07:35:30;;;;;;;7.18;3.22;;;9.90;99.90;;;;;;5071045;28;20157;-72
2021/10/17 07:37:57;;;;;;;3.20;2.53;;;10.30;99.90;;;;;;5069840;28;20251;-72
2021/10/17 07:40:24;;;;;;;3.47;2.80;;;11.20;99.90;;;;;;5070945;28;20208;-73
2021/10/17 07:42:50;;;;;;;7.40;3.45;;;12.00;99.90;;;;;;5070977;28;20175;-72
2021/10/17 07:45:16;;;;;;;7.93;3.17;;;12.20;99.90;;;;;;5070926;28;20168;-73
2021/10/17 07:47:42;;;;;;;5.13;2.63;;;13.00;99.90;;;;;;5070777;28;20157;-73
2021/10/17 07:50:09;;;;;;;3.75;2.80;;;12.90;99.90;;;;;;5070620;28;20176;-73
2021/10/17 07:52:39;;;;;;;4.55;2.88;;;12.90;99.90;;;;;;5065620;28;20240;-71
2021/10/17 07:55:06;;;;;;;3.85;2.60;;;12.20;99.90;;;;;;5050820;28;20173;-73
2021/10/17 07:57:50;;;;;;;4.13;2.88;;;12.90;99.90;;;;;;5032609;28;20181;-73
2021/10/17 08:00:24;;;;;;;7.65;3.20;;;13.60;99.90;;;;;;5050088;28;20205;-73
2021/10/17 08:02:50;;;;;;;4.05;3.03;;;13.40;99.90;;;;;;5032520;28;20259;-73
2021/10/17 08:05:16;;;;;;;7.50;3.00;;;14.60;99.90;;;;;;5050433;28;20188;-73
2021/10/17 08:07:42;;;;;;;7.63;3.30;;;16.20;99.90;;;;;;5032386;28;20169;-73
2021/10/17 08:10:10;;;;;;;4.57;3.10;;;16.20;99.90;;;;;;5050224;28;20489;-73
2021/10/17 08:12:36;;;;;;;3.03;2.45;;;15.80;99.90;;;;;;5032448;28;20203;-73
2021/10/17 08:15:04;;;;;;;4.80;2.75;;;16.30;99.90;;;;;;5050412;28;20157;-73
2021/10/17 08:17:30;;;;;;;5.43;2.55;;;17.20;99.90;;;;;;5050238;28;20154;-71
2021/10/17 08:19:57;;;;;;;3.97;2.80;;;17.80;99.90;;;;;;5032070;28;20368;-71
2021/10/17 08:22:23;;;;;;;8.10;3.33;;;17.20;99.90;;;;;;5032134;28;20223;-71
2021/10/17 08:24:50;;;;;;;3.63;2.55;;;17.90;99.90;;;;;;5050090;28;20164;-71
2021/10/17 08:27:18;;;;;;;3.13;2.40;;;18.70;99.90;;;;;;5032389;28;20181;-71
2021/10/17 08:29:44;;;;;;;3.58;2.38;;;18.70;99.90;;;;;;5049937;28;20238;-72
2021/10/17 08:32:10;;;;;;;5.13;2.58;;;17.50;99.90;;;;;;5032004;28;20197;-72
2021/10/17 08:34:36;;;;;;;5.38;2.55;;;17.90;99.90;;;;;;5032172;28;20257;-71
2021/10/17 08:37:03;;;;;;;5.57;2.58;;;17.90;99.90;;;;;;5049962;28;20169;-71
2021/10/17 08:39:29;;;;;;;6.78;2.88;;;18.20;99.90;;;;;;5049958;28;20196;-72
2021/10/17 08:41:55;;;;;;;6.10;2.78;;;17.90;99.90;;;;;;5049830;28;20219;-72
2021/10/17 08:44:21;;;;;;;3.53;2.10;;;18.10;99.90;;;;;;5049952;28;20154;-72
2021/10/17 08:46:49;;;;;;;3.40;2.72;;;17.50;99.90;;;;;;5032091;28;20176;-72
2021/10/17 08:49:20;;;;;;;4.30;2.85;;;17.70;99.90;;;;;;5032180;28;20169;-72
2021/10/17 08:51:45;;;;;;;3.28;2.70;;;18.30;99.90;;;;;;5031812;28;20193;-73
2021/10/17 08:54:11;;;;;;;4.47;3.05;;;18.90;99.90;;;;;;5049585;28;20220;-73
2021/10/17 08:56:37;;;;;;;4.28;2.80;;;17.50;99.90;;;;;;5046119;28;20190;-73
2021/10/17 08:59:03;;;;;;;5.57;3.13;;;16.60;99.90;;;;;;5013834;28;20201;-73
2021/10/17 09:01:35;;;;;;;4.10;2.97;;;16.80;99.90;;;;;;5011666;28;20209;-73
2021/10/17 09:04:03;;;;;;;5.88;3.25;;;17.50;99.90;;;;;;5029309;28;20162;-72
2021/10/17 09:06:34;;;;;;;3.78;2.60;;;18.40;99.90;;;;;;5029229;28;20155;-73
2021/10/17 09:09:04;;;;;;;4.82;2.95;;;17.50;99.90;;;;;;5028796;28;20220;-73
2021/10/17 09:11:37;;;;;;;4.72;2.78;;;16.60;99.90;;;;;;5029045;28;20198;-72
2021/10/17 09:14:16;;;;;;;3.20;2.53;;;18.20;99.90;;;;;;5028334;28;20170;-73
2021/10/17 09:16:45;;;;;;;4.50;3.05;;;18.90;99.90;;;;;;5029017;28;20158;-73
2021/10/17 09:19:14;;;;;;;3.30;2.53;;;18.30;99.90;;;;;;5029208;28;20200;-72
2021/10/17 09:22:01;;;;;;;2.90;2.22;;;18.50;99.90;;;;;;5029053;28;20220;-72
2021/10/17 09:24:32;;;;;;;4.03;2.97;;;19.70;99.90;;;;;;5029091;28;20170;-72
2021/10/17 09:27:10;;;;;;;4.10;3.08;;;19.00;99.90;;;;;;5028913;28;20169;-72
2021/10/17 09:29:37;;;;;;;5.43;2.85;;;17.30;99.90;;;;;;5029049;28;20225;-73
2021/10/17 09:32:22;;;;;;;3.65;2.83;;;17.10;99.90;;;;;;5028593;28;20241;-73
2021/10/17 09:34:59;;;;;;;4.32;2.92;;;17.20;99.90;;;;;;5010772;28;20220;-73
2021/10/17 09:37:40;;;;;;;4.03;2.53;;;18.30;99.90;;;;;;5028854;28;20592;-74
2021/10/17 09:40:21;;;;;;;7.15;2.92;;;17.80;99.90;;;;;;5028656;28;20197;-72
2021/10/17 09:43:12;;;;;;;4.68;3.28;;;18.40;99.90;;;;;;5028924;28;20162;-72
2021/10/17 09:45:40;;;;;;;5.50;2.83;;;18.30;99.90;;;;;;5028784;28;20195;-72
2021/10/17 09:48:07;;;;;;;4.75;3.10;;;18.10;99.90;;;;;;5028618;28;20166;-72
2021/10/17 09:50:33;;;;;;;4.57;3.15;;;18.10;99.90;;;;;;5028562;28;20223;-72
2021/10/17 09:53:07;;;;;;;5.13;3.30;;;17.40;99.90;;;;;;5034920;28;20666;-71
2021/10/17 09:55:35;;;;;;;5.40;3.60;;;17.50;99.90;;;;;;5054079;28;20172;-71
2021/10/17 09:58:03;;;;;;;4.70;3.00;;;18.40;99.90;;;;;;5056361;28;20165;-71
2021/10/17 10:00:43;;;;;;;5.85;2.97;;;19.30;99.90;;;;;;5060661;28;20208;-72
2021/10/17 10:03:13;;;;;;;4.15;3.15;;;19.80;99.90;;;;;;5056556;28;20573;-71
2021/10/17 10:05:42;;;;;;;4.88;3.08;;;17.90;99.90;;;;;;5058690;28;20187;-70
2021/10/17 10:08:09;;;;;;;4.28;2.97;;;17.80;99.90;;;;;;5060807;28;20215;-71
2021/10/17 10:10:37;;;;;;;3.95;2.90;;;18.90;99.90;;;;;;5058171;28;20192;-73
2021/10/17 10:13:05;;;;;;;5.05;3.45;;;19.70;99.90;;;;;;5058882;28;20169;-73
2021/10/17 10:15:32;;;;;;;4.80;2.95;;;19.20;99.90;;;;;;5057844;28;20176;-72
2021/10/17 10:18:01;;;;;;;4.47;3.08;;;17.80;99.90;;;;;;5049107;28;20203;-73
2021/10/17 10:20:28;;;;;;;3.10;2.80;;;17.90;99.90;;;;;;5073757;28;20212;-72
2021/10/17 10:22:55;;;;;;;4.72;3.65;;;18.00;99.90;;;;;;5060731;28;20225;-72
2021/10/17 10:25:21;;;;;;;6.90;3.50;;;18.20;99.90;;;;;;5055228;28;20264;-73
2021/10/17 10:27:48;;;;;;;4.97;3.42;;;17.10;99.90;;;;;;5063345;28;20257;-73
2021/10/17 10:30:21;;;;;;;4.43;3.17;;;17.90;99.90;;;;;;5057152;28;20250;-72
2021/10/17 10:33:16;;;;;;;7.45;3.78;;;18.00;99.90;;;;;;5057576;28;20169;-72
2021/10/17 10:36:16;;;;;;;6.68;3.17;;;16.90;99.90;;;;;;5054731;28;20274;-72
2021/10/17 10:38:51;;;;;;;4.20;3.00;;;17.10;99.90;;;;;;5055102;28;20212;-72
2021/10/17 10:41:21;;;;;;;4.97;3.00;;;17.80;99.90;;;;;;5056771;28;20250;-72
2021/10/17 10:43:47;;;;;;;4.63;2.97;;;18.60;99.90;;;;;;5063670;28;20179;-71
2021/10/17 10:46:30;;;;;;;5.53;2.83;;;18.30;99.90;;;;;;5052326;28;20180;-72
2021/10/17 10:48:56;;;;;;;5.13;3.10;;;18.00;99.90;;;;;;5063432;28;20175;-71
2021/10/17 10:51:39;;;;;;;4.13;2.55;;;18.60;99.90;;;;;;5061541;28;20219;-72
2021/10/17 10:54:06;;;;;;;6.47;3.17;;;17.40;99.90;;;;;;5059611;28;20239;-68
2021/10/17 10:56:41;;;;;;;4.85;2.58;;;16.70;99.90;;;;;;5067382;28;20172;-68
2021/10/17 10:59:08;;;;;;;5.10;3.03;;;16.30;99.90;;;;;;5067332;28;20218;-70
2021/10/17 11:01:58;;;;;;;3.92;3.25;;;17.30;99.90;;;;;;5066116;28;20188;-69
2021/10/17 11:04:53;;;;;;;3.90;3.10;;;18.40;99.90;;;;;;5065258;28;20161;-72
2021/10/17 11:07:22;;;;;;;4.40;3.22;;;18.50;99.90;;;;;;5027940;28;20637;-71
2021/10/17 11:09:50;;;;;;;4.65;2.72;;;17.80;99.90;;;;;;5062447;28;20204;-74
2021/10/17 11:12:40;;;;;;;4.80;2.95;;;18.10;99.90;;;;;;5065845;28;20268;-72
2021/10/17 11:15:11;;;;;;;3.00;2.55;;;18.70;99.90;;;;;;5066476;28;20264;-72
2021/10/17 11:17:38;;;;;;;3.42;2.65;;;19.40;99.90;;;;;;5067230;28;20184;-73
2021/10/17 11:20:05;;;;;;;5.65;3.85;;;20.80;99.90;;;;;;5066577;28;20342;-72
2021/10/17 11:22:35;;;;;;;6.65;2.85;;;20.70;99.90;;;;;;5067114;28;20161;-80
2021/10/17 11:25:01;;;;;;;4.18;2.40;;;20.40;99.90;;;;;;5065364;28;20179;-81
2021/10/17 11:27:27;;;;;;;4.80;3.22;;;20.50;99.90;;;;;;5065731;28;20172;-81
2021/10/17 11:29:53;;;;;;;4.65;2.95;;;19.00;99.90;;;;;;5065673;28;20287;-81
2021/10/17 11:32:19;;;;;;;4.53;2.55;;;19.50;99.90;;;;;;5067526;28;20184;-81
2021/10/17 11:34:59;;;;;;;3.67;2.55;;;19.90;99.90;;;;;;5065557;28;20181;-84
2021/10/17 11:37:29;;;;;;;6.28;2.97;;;19.70;99.90;;;;;;5065877;28;20186;-82
2021/10/17 11:39:57;;;;;;;4.25;3.10;;;19.70;99.90;;;;;;5065654;28;20551;-83
2021/10/17 11:42:25;;;;;;;5.55;2.83;;;18.90;99.90;;;;;;5053165;28;20175;-83
2021/10/17 11:44:51;;;;;;;4.72;3.13;;;18.10;99.90;;;;;;5068254;28;20174;-83
2021/10/17 11:47:20;;;;;;;5.05;3.13;;;18.70;99.90;;;;;;5068662;28;20175;-84
2021/10/17 11:49:49;;;;;;;5.53;3.38;;;18.40;99.90;;;;;;5069845;28;20169;-80
2021/10/17 11:52:19;;;;;;;3.20;2.47;;;18.10;99.90;;;;;;5068103;28;20169;-80
2021/10/17 11:54:47;;;;;;;5.78;2.70;;;19.10;99.90;;;;;;5049490;28;20203;-81
2021/10/17 11:57:33;;;;;;;4.40;2.70;;;19.80;99.90;;;;;;5032513;28;20196;-80
2021/10/17 12:00:06;;;;;;;4.45;2.83;;;19.90;99.90;;;;;;5049835;28;20200;-82
2021/10/17 12:02:33;;;;;;;3.97;2.75;;;20.10;99.90;;;;;;5032342;28;20192;-72
2021/10/17 12:05:00;;;;;;;5.35;2.53;;;20.40;99.90;;;;;;5050390;28;20180;-72
2021/10/17 12:07:27;;;;;;;5.43;2.63;;;19.60;99.90;;;;;;5031837;28;20208;-73
2021/10/17 12:09:54;;;;;;;3.47;3.15;;;19.40;99.90;;;;;;5050334;28;20309;-75
2021/10/17 12:12:24;;;;;;;4.93;2.95;;;17.10;99.90;;;;;;5050254;28;20153;-75
2021/10/17 12:15:04;;;;;;;3.60;2.83;;;16.80;99.90;;;;;;5049997;28;20280;-74
2021/10/17 12:17:31;;;;;;;5.55;2.58;;;16.30;99.90;;;;;;5050022;28;20192;-75
2021/10/17 12:20:02;;;;;;;4.95;2.72;;;16.30;99.90;;;;;;5032037;28;20280;-74
2021/10/17 12:22:29;;;;;;;5.90;2.60;;;16.20;99.90;;;;;;5031959;28;20173;-74
2021/10/17 12:24:59;;;;;;;5.38;3.25;;;16.10;99.90;;;;;;5049214;28;20166;-74
2021/10/17 12:27:33;;;;;;;5.10;3.10;;;15.80;99.90;;;;;;5031934;28;20220;-74
2021/10/17 12:30:14;;;;;;;3.85;3.10;;;15.60;99.90;;;;;;5031723;28;20204;-75
2021/10/17 12:32:44;;;;;;;7.20;3.28;;;15.40;99.90;;;;;;5049453;28;20184;-75
2021/10/17 12:35:25;;;;;;;5.00;3.35;;;15.30;99.90;;;;;;5030184;28;20192;-78
2021/10/17 12:37:51;;;;;;;3.97;3.17;;;15.50;99.90;;;;;;5049479;28;20157;-79
2021/10/17 12:40:18;;;;;;;4.43;3.17;;;15.40;99.90;;;;;;5030435;28;20216;-76
2021/10/17 12:42:59;;;;;;;6.03;3.15;;;15.40;99.90;;;;;;5022918;28;20164;-76
2021/10/17 12:45:31;;;;;;;4.32;3.03;;;15.20;99.90;;;;;;5068666;28;20161;-77
2021/10/17 12:47:59;;;;;;;4.53;3.28;;;15.20;99.90;;;;;;5055456;28;20174;-76
2021/10/17 12:50:27;;;;;;;3.42;3.13;;;15.00;99.90;;;;;;5049275;28;20657;-76
2021/10/17 12:52:59;;;;;;;5.72;2.90;;;14.80;99.90;;;;;;5039028;28;20228;-76
2021/10/17 12:55:30;;;;;;;4.10;3.03;;;15.00;99.90;;;;;;5069143;28;20196;-76
2021/10/17 12:58:03;;;;;;;4.10;2.88;;;15.00;99.90;;;;;;5069147;28;20149;-76